Time;durP1;ratioP1;P1;durP2;ratioP2;P2;SDS_P1;SDS_P2;PMS_P1;PMS_P2;Temp;Humidity;BMP_temperature;BMP_pressure;BME280_temperature;BME280_humidity;BME280_pressure;Samples;Min_cycle;Max_cycle;Signal;HPM_P1;HPM_P2
2021/09/09 04:02:10;;;;;;;6.50;5.40;;;12.60;96.30;;;;;;5141027;23;20497;-76
2021/09/09 04:04:36;;;;;;;9.27;5.17;;;12.60;96.30;;;;;;4973461;28;20796;-76
2021/09/09 04:07:01;;;;;;;14.57;7.20;;;12.60;96.30;;;;;;4958483;29;20202;-76
2021/09/09 04:09:27;;;;;;;7.17;5.63;;;12.60;96.30;;;;;;4958676;29;20182;-76
2021/09/09 04:11:52;;;;;;;7.63;5.30;;;12.70;96.30;;;;;;4957737;28;20213;-78
2021/09/09 04:14:18;;;;;;;9.33;5.30;;;12.70;96.30;;;;;;4959146;28;20643;-78
2021/09/09 04:16:43;;;;;;;13.83;5.60;;;12.70;96.30;;;;;;4981381;28;20272;-77
2021/09/09 04:19:09;;;;;;;5.57;4.90;;;12.80;96.30;;;;;;4964145;28;20251;-78
2021/09/09 04:21:35;;;;;;;14.10;6.30;;;12.80;96.30;;;;;;4963396;28;20584;-76
2021/09/09 04:24:00;;;;;;;6.30;4.93;;;12.80;96.30;;;;;;4968270;28;20270;-78
2021/09/09 04:26:26;;;;;;;5.43;4.67;;;12.90;96.30;;;;;;4975854;28;20189;-77
2021/09/09 04:28:51;;;;;;;8.50;5.30;;;12.90;96.30;;;;;;4971939;28;20213;-78
2021/09/09 04:31:17;;;;;;;6.80;4.90;;;12.90;96.30;;;;;;4954471;28;20217;-77
2021/09/09 04:33:42;;;;;;;11.93;6.00;;;12.90;96.30;;;;;;4956289;28;20226;-77
2021/09/09 04:36:08;;;;;;;6.73;4.53;;;12.90;96.30;;;;;;4963940;28;20650;-77
2021/09/09 04:38:33;;;;;;;5.57;4.70;;;12.90;96.30;;;;;;4975651;28;20170;-78
2021/09/09 04:40:59;;;;;;;13.03;5.80;;;12.80;96.30;;;;;;4975266;28;20197;-79
2021/09/09 04:43:24;;;;;;;6.17;5.03;;;12.80;96.30;;;;;;4974739;28;20178;-77
2021/09/09 04:45:50;;;;;;;11.83;6.30;;;12.80;96.30;;;;;;4975099;28;20175;-77
2021/09/09 04:48:16;;;;;;;8.57;4.97;;;12.80;96.30;;;;;;4975354;28;20265;-77
2021/09/09 04:50:41;;;;;;;11.20;5.40;;;12.80;96.30;;;;;;4975388;28;20194;-77
2021/09/09 04:53:07;;;;;;;12.33;5.37;;;12.80;96.30;;;;;;4975132;28;20236;-77
2021/09/09 04:55:32;;;;;;;6.60;4.90;;;12.80;96.30;;;;;;4975579;28;20178;-79
2021/09/09 04:57:58;;;;;;;11.37;5.23;;;12.80;96.30;;;;;;4974895;28;20178;-79
2021/09/09 05:00:23;;;;;;;6.53;4.80;;;12.90;96.30;;;;;;4973507;28;20178;-79
2021/09/09 05:02:49;;;;;;;6.53;5.00;;;12.90;96.30;;;;;;4958219;28;20183;-79
2021/09/09 05:05:14;;;;;;;18.33;6.23;;;12.90;96.30;;;;;;4974009;28;20197;-80
2021/09/09 05:07:40;;;;;;;11.67;5.20;;;13.00;96.30;;;;;;4973950;28;20186;-81
2021/09/09 05:10:06;;;;;;;8.73;4.87;;;13.00;96.30;;;;;;4975211;28;20630;-81
2021/09/09 05:12:32;;;;;;;6.70;4.90;;;13.00;96.30;;;;;;4974255;28;20512;-80
2021/09/09 05:14:58;;;;;;;6.97;5.00;;;13.00;96.30;;;;;;4975053;28;20413;-80
2021/09/09 05:17:23;;;;;;;10.87;4.80;;;13.00;96.30;;;;;;4973611;28;20583;-79
2021/09/09 05:19:49;;;;;;;5.50;4.27;;;13.10;96.30;;;;;;4974918;28;20182;-79
2021/09/09 05:22:14;;;;;;;17.13;4.73;;;13.50;96.30;;;;;;4973285;28;20232;-80
2021/09/09 05:24:40;;;;;;;7.60;4.53;;;14.20;96.30;;;;;;4975148;28;20189;-80
2021/09/09 05:27:05;;;;;;;9.37;4.63;;;14.90;96.30;;;;;;4961457;28;20222;-80
2021/09/09 05:29:31;;;;;;;12.40;5.13;;;15.40;96.30;;;;;;4957507;28;20171;-80
2021/09/09 05:31:56;;;;;;;7.33;4.63;;;16.10;96.30;;;;;;4956089;28;20218;-81
2021/09/09 05:34:22;;;;;;;7.20;5.13;;;16.70;96.30;;;;;;4962744;28;20195;-80
2021/09/09 05:36:47;;;;;;;5.90;4.70;;;16.80;95.50;;;;;;4976756;28;20301;-80
2021/09/09 05:39:13;;;;;;;8.67;4.63;;;17.00;94.30;;;;;;4976619;28;20201;-81
2021/09/09 05:41:38;;;;;;;18.67;5.07;;;17.50;92.80;;;;;;4975958;28;20202;-80
2021/09/09 05:44:04;;;;;;;11.20;4.77;;;17.50;93.00;;;;;;4974347;28;20194;-80
2021/09/09 05:46:30;;;;;;;9.43;5.20;;;17.70;91.60;;;;;;4976053;28;20175;-81
2021/09/09 05:48:55;;;;;;;5.20;4.60;;;18.20;90.00;;;;;;4975800;28;20211;-81
2021/09/09 05:51:21;;;;;;;7.30;4.00;;;18.40;89.30;;;;;;4968988;28;20289;-80
2021/09/09 05:53:46;;;;;;;6.90;4.73;;;18.40;89.30;;;;;;4977168;28;20178;-81
2021/09/09 05:56:12;;;;;;;7.70;4.50;;;19.00;87.80;;;;;;4963012;28;20178;-80
2021/09/09 05:58:38;;;;;;;8.87;5.03;;;19.40;86.60;;;;;;4970449;28;20182;-79
2021/09/09 06:01:05;;;;;;;8.10;4.33;;;19.70;85.60;;;;;;4975779;28;20213;-80
2021/09/09 06:03:31;;;;;;;5.03;4.30;;;19.80;85.30;;;;;;4976547;28;20444;-80
2021/09/09 06:06:03;;;;;;;5.97;4.63;;;19.80;85.10;;;;;;4976129;28;20417;-80
2021/09/09 06:08:31;;;;;;;8.03;4.13;;;19.50;85.50;;;;;;4976785;28;20406;-81
2021/09/09 06:10:56;;;;;;;5.70;4.40;;;19.20;85.60;;;;;;4975452;28;20976;-79
2021/09/09 06:13:22;;;;;;;15.33;5.27;;;19.60;85.80;;;;;;4975253;28;20426;-80
2021/09/09 06:15:47;;;;;;;5.53;4.50;;;19.20;87.00;;;;;;4976465;28;20174;-80
2021/09/09 06:18:13;;;;;;;6.30;3.90;;;18.90;87.30;;;;;;4976777;28;20589;-81
2021/09/09 06:20:38;;;;;;;11.40;5.03;;;18.80;87.00;;;;;;4976536;28;20202;-80
2021/09/09 06:23:03;;;;;;;10.43;4.80;;;19.40;86.60;;;;;;4974839;28;20178;-80
2021/09/09 06:25:29;;;;;;;6.83;4.90;;;19.40;87.30;;;;;;4976148;28;20185;-80
2021/09/09 06:27:54;;;;;;;5.63;3.90;;;20.30;84.50;;;;;;4965674;28;20188;-80
2021/09/09 06:30:20;;;;;;;7.80;4.60;;;20.80;83.00;;;;;;4978385;28;20272;-80
2021/09/09 06:32:45;;;;;;;7.93;4.63;;;20.80;82.70;;;;;;4977914;28;20205;-81
2021/09/09 06:35:11;;;;;;;10.40;4.67;;;20.70;82.00;;;;;;4978027;28;20181;-81
2021/09/09 06:37:38;;;;;;;5.03;4.20;;;20.90;82.10;;;;;;4977517;28;20184;-80
2021/09/09 06:40:05;;;;;;;6.30;4.10;;;20.90;82.30;;;;;;4977248;28;20173;-80
2021/09/09 06:42:31;;;;;;;6.07;4.10;;;20.60;83.00;;;;;;4977131;28;20957;-81
2021/09/09 06:44:56;;;;;;;5.13;4.40;;;21.90;79.60;;;;;;4978098;28;20424;-80
2021/09/09 06:47:22;;;;;;;9.10;4.33;;;22.20;79.30;;;;;;4978599;28;20185;-80
2021/09/09 06:49:47;;;;;;;5.07;3.77;;;21.90;79.20;;;;;;4978032;28;20762;-80
2021/09/09 06:52:12;;;;;;;6.23;4.30;;;22.30;78.10;;;;;;4973193;28;20240;-81
2021/09/09 06:54:39;;;;;;;5.77;4.10;;;22.20;79.10;;;;;;4957990;28;20186;-81
2021/09/09 06:57:04;;;;;;;6.20;4.20;;;22.70;78.40;;;;;;4959660;28;20170;-80
2021/09/09 06:59:30;;;;;;;5.17;4.77;;;22.70;78.10;;;;;;4959943;28;20410;-81
2021/09/09 07:01:55;;;;;;;7.50;4.33;;;22.70;77.20;;;;;;4958389;28;20743;-81
2021/09/09 07:04:21;;;;;;;5.03;4.37;;;23.10;76.90;;;;;;4961050;28;20242;-81
2021/09/09 07:06:46;;;;;;;11.60;3.87;;;23.50;77.40;;;;;;4959110;28;20178;-81
2021/09/09 07:09:11;;;;;;;6.10;4.10;;;23.20;76.00;;;;;;4960046;28;20201;-81
2021/09/09 07:11:37;;;;;;;5.03;3.77;;;24.00;75.70;;;;;;4960308;28;20237;-81
2021/09/09 07:14:02;;;;;;;5.60;4.33;;;24.20;75.10;;;;;;4960262;28;20170;-82
2021/09/09 07:16:28;;;;;;;4.80;3.97;;;24.30;74.90;;;;;;4959713;28;20646;-81
2021/09/09 07:18:54;;;;;;;9.37;4.70;;;24.80;74.10;;;;;;4959514;28;20210;-81
2021/09/09 07:21:20;;;;;;;6.10;4.03;;;25.30;73.00;;;;;;4957169;28;20591;-81
2021/09/09 07:23:46;;;;;;;14.47;4.50;;;25.90;71.50;;;;;;4959719;28;20422;-81
2021/09/09 07:26:12;;;;;;;4.90;4.07;;;25.30;72.40;;;;;;4968244;28;20174;-81
2021/09/09 07:28:37;;;;;;;4.80;3.60;;;24.70;73.20;;;;;;4981012;28;20472;-81
2021/09/09 07:31:03;;;;;;;7.80;4.23;;;24.40;73.70;;;;;;4979801;28;20220;-81
2021/09/09 07:33:28;;;;;;;5.87;4.47;;;25.00;73.30;;;;;;4979371;28;20524;-81
2021/09/09 07:35:54;;;;;;;6.97;4.20;;;25.10;73.20;;;;;;4980292;28;20179;-81
2021/09/09 07:38:19;;;;;;;5.03;3.73;;;25.80;72.70;;;;;;4978315;28;20186;-81
2021/09/09 07:40:45;;;;;;;7.80;4.17;;;26.40;71.10;;;;;;4978295;28;20194;-82
2021/09/09 07:43:10;;;;;;;6.40;3.83;;;26.40;70.90;;;;;;4975671;28;20174;-81
2021/09/09 07:45:36;;;;;;;6.00;3.90;;;26.50;70.80;;;;;;4976016;28;20578;-82
2021/09/09 07:48:02;;;;;;;7.83;4.50;;;26.10;71.10;;;;;;4973503;28;20177;-82
2021/09/09 07:50:27;;;;;;;4.93;3.80;;;25.30;72.40;;;;;;4974321;28;20170;-82
2021/09/09 07:52:53;;;;;;;6.30;4.27;;;25.80;72.80;;;;;;4972225;28;20213;-82
2021/09/09 07:55:19;;;;;;;6.40;4.73;;;25.30;72.80;;;;;;4974553;28;20244;-81
2021/09/09 07:57:45;;;;;;;11.33;4.30;;;24.60;74.50;;;;;;4975588;28;20212;-81
2021/09/09 08:00:12;;;;;;;4.53;3.70;;;24.60;75.00;;;;;;4975365;28;20532;-81
2021/09/09 08:02:38;;;;;;;5.00;3.90;;;24.60;75.30;;;;;;4974285;28;20417;-81
2021/09/09 08:05:04;;;;;;;13.17;4.07;;;25.20;74.00;;;;;;4975030;28;20775;-81
2021/09/09 08:07:30;;;;;;;7.73;3.97;;;25.00;74.10;;;;;;4977102;28;20439;-81
2021/09/09 08:09:55;;;;;;;6.07;4.60;;;25.30;73.10;;;;;;4979228;28;20674;-81
2021/09/09 08:12:21;;;;;;;7.10;4.77;;;24.90;75.30;;;;;;4978638;28;20461;-81
2021/09/09 08:14:46;;;;;;;4.90;3.90;;;25.60;72.90;;;;;;4964632;28;20178;-82
2021/09/09 08:17:12;;;;;;;6.00;3.73;;;25.40;74.50;;;;;;4959891;28;20226;-81
2021/09/09 08:19:38;;;;;;;5.53;3.70;;;25.20;73.60;;;;;;4957783;28;20174;-81
2021/09/09 08:22:03;;;;;;;6.30;4.00;;;25.60;72.80;;;;;;4958258;28;20278;-81
2021/09/09 08:24:29;;;;;;;8.70;4.57;;;24.80;73.90;;;;;;4958355;28;20229;-82
2021/09/09 08:26:55;;;;;;;14.23;4.70;;;25.30;73.40;;;;;;4971833;28;20182;-81
2021/09/09 08:29:20;;;;;;;5.47;3.73;;;24.60;74.50;;;;;;4976556;28;20597;-81
2021/09/09 08:31:46;;;;;;;9.80;4.77;;;24.60;73.80;;;;;;4977084;28;20216;-81
2021/09/09 08:34:11;;;;;;;5.37;4.40;;;24.50;74.40;;;;;;4977539;28;20176;-81
2021/09/09 08:36:37;;;;;;;7.10;4.20;;;24.50;74.30;;;;;;4977762;28;20188;-81
2021/09/09 08:39:02;;;;;;;4.57;4.00;;;24.60;75.00;;;;;;4977888;28;20237;-81
2021/09/09 08:41:30;;;;;;;11.93;4.50;;;24.90;74.50;;;;;;4975391;28;20210;-81
2021/09/09 08:43:55;;;;;;;6.43;3.80;;;25.10;74.40;;;;;;4977159;28;20645;-82
2021/09/09 08:46:21;;;;;;;8.53;3.77;;;25.70;72.40;;;;;;4976576;28;20468;-81
2021/09/09 08:48:48;;;;;;;11.37;4.13;;;25.50;71.90;;;;;;4977510;28;20181;-81
2021/09/09 08:51:16;;;;;;;5.63;3.70;;;25.10;73.80;;;;;;4978467;28;20206;-81
2021/09/09 08:53:43;;;;;;;5.17;4.67;;;24.40;76.00;;;;;;4979705;28;20496;-81
2021/09/09 08:56:08;;;;;;;10.00;4.80;;;25.50;73.90;;;;;;4979433;28;20413;-81
2021/09/09 08:58:36;;;;;;;7.37;4.20;;;26.10;73.20;;;;;;4979978;28;20409;-81
2021/09/09 09:01:10;;;;;;;5.30;4.10;;;26.90;71.60;;;;;;4979392;28;20209;-81
2021/09/09 09:03:49;;;;;;;4.33;3.83;;;26.80;70.80;;;;;;4978783;28;20416;-81
2021/09/09 09:06:36;;;;;;;4.90;4.40;;;26.00;71.80;;;;;;4979819;28;20505;-81
2021/09/09 09:09:11;;;;;;;8.10;4.70;;;26.10;71.70;;;;;;4980222;28;20398;-81
2021/09/09 09:11:45;;;;;;;5.50;3.80;;;26.80;71.00;;;;;;4979486;28;20464;-81
2021/09/09 09:14:13;;;;;;;4.70;4.13;;;26.00;73.30;;;;;;4979808;28;20424;-81
2021/09/09 09:16:45;;;;;;;8.33;4.03;;;26.10;73.10;;;;;;4978246;28;20472;-81
2021/09/09 09:19:15;;;;;;;9.53;4.00;;;26.60;71.30;;;;;;4979076;28;20409;-81
2021/09/09 09:21:44;;;;;;;6.00;4.10;;;26.90;72.40;;;;;;4978625;28;20440;-81
2021/09/09 09:24:18;;;;;;;7.27;4.10;;;26.90;70.40;;;;;;4982899;28;20421;-81
2021/09/09 09:27:04;;;;;;;5.83;3.97;;;26.50;71.50;;;;;;4967313;28;20421;-81
2021/09/09 09:29:29;;;;;;;9.03;4.37;;;26.70;71.50;;;;;;4957210;28;20445;-81
2021/09/09 09:32:07;;;;;;;5.87;4.40;;;26.70;70.70;;;;;;4958814;28;20792;-81
2021/09/09 09:34:32;;;;;;;3.90;3.43;;;26.10;71.60;;;;;;4957530;29;20178;-81
2021/09/09 09:36:58;;;;;;;4.27;3.87;;;26.00;72.70;;;;;;4957528;28;20425;-81
2021/09/09 09:39:23;;;;;;;5.97;4.23;;;25.70;73.60;;;;;;4958195;28;20237;-81
2021/09/09 09:41:55;;;;;;;8.63;4.43;;;25.60;74.00;;;;;;4957497;28;20202;-81
2021/09/09 09:44:47;;;;;;;7.57;4.10;;;26.00;73.70;;;;;;4958330;28;20186;-81
2021/09/09 09:47:19;;;;;;;5.97;3.90;;;25.80;72.20;;;;;;4957105;28;20929;-81
2021/09/09 09:49:50;;;;;;;5.77;4.70;;;25.80;71.90;;;;;;4957738;28;20414;-81
2021/09/09 09:52:23;;;;;;;5.57;4.20;;;25.70;74.20;;;;;;4957809;28;20490;-81
2021/09/09 09:54:50;;;;;;;5.73;4.10;;;26.10;73.30;;;;;;4958216;28;20426;-81
2021/09/09 09:57:15;;;;;;;4.30;3.90;;;26.90;72.30;;;;;;4958920;28;20407;-81
2021/09/09 09:59:41;;;;;;;10.27;4.37;;;27.40;72.40;;;;;;4957797;28;20417;-81
2021/09/09 10:02:10;;;;;;;4.73;4.23;;;27.30;70.20;;;;;;4957586;28;20212;-81
2021/09/09 10:04:35;;;;;;;4.93;4.07;;;27.00;71.50;;;;;;4958609;28;20713;-81
2021/09/09 10:07:01;;;;;;;5.33;4.20;;;26.90;70.20;;;;;;4957070;28;20450;-81
2021/09/09 10:09:27;;;;;;;3.90;3.50;;;26.60;71.50;;;;;;4958296;28;20179;-80
2021/09/09 10:11:53;;;;;;;15.13;4.30;;;26.80;72.40;;;;;;4956173;28;20237;-81
2021/09/09 10:14:25;;;;;;;7.07;4.07;;;26.90;71.00;;;;;;4958229;28;20406;-81
2021/09/09 10:16:54;;;;;;;5.67;3.90;;;26.80;70.80;;;;;;4961322;28;20174;-81
2021/09/09 10:19:29;;;;;;;4.13;3.73;;;27.20;72.40;;;;;;4964760;28;20415;-81
2021/09/09 10:24:33;;;;;;;4.60;4.20;;;25.90;72.30;;;;;;5085026;23;20485;-82
2021/09/09 10:27:15;;;;;;;11.27;4.40;;;26.10;71.50;;;;;;5000004;28;20471;-83
2021/09/09 10:29:43;;;;;;;6.77;4.17;;;26.20;74.00;;;;;;4995269;28;20912;-80
2021/09/09 10:32:29;;;;;;;8.23;4.00;;;26.30;74.90;;;;;;4980108;28;21032;-81
2021/09/09 10:35:20;;;;;;;6.10;4.50;;;27.20;71.40;;;;;;4977395;28;20421;-82
2021/09/09 10:37:46;;;;;;;6.80;4.13;;;28.10;69.70;;;;;;4977691;28;20397;-81
2021/09/09 10:40:35;;;;;;;5.23;3.93;;;28.30;70.10;;;;;;4977955;28;20420;-81
2021/09/09 10:43:05;;;;;;;9.97;3.80;;;27.90;68.30;;;;;;4976571;28;20446;-80
2021/09/09 10:45:34;;;;;;;5.57;3.87;;;27.50;69.70;;;;;;4977039;28;20408;-81
2021/09/09 10:48:18;;;;;;;5.97;4.17;;;27.50;69.30;;;;;;4977157;28;20501;-81
2021/09/09 10:51:01;;;;;;;5.33;3.90;;;27.50;68.30;;;;;;4975515;28;20965;-82
2021/09/09 10:53:38;;;;;;;3.90;3.60;;;27.00;68.10;;;;;;4976032;28;20537;-82
2021/09/09 10:56:18;;;;;;;5.30;4.00;;;26.50;67.60;;;;;;4976083;28;20409;-81
2021/09/09 10:58:44;;;;;;;3.57;3.27;;;26.30;69.80;;;;;;4976243;28;20405;-81
2021/09/09 11:01:11;;;;;;;10.83;4.17;;;25.70;69.10;;;;;;4976044;28;20504;-81
2021/09/09 11:03:50;;;;;;;4.93;3.83;;;26.60;70.20;;;;;;4990998;28;20529;-81
2021/09/09 11:06:23;;;;;;;4.83;3.77;;;26.50;69.90;;;;;;4976484;28;20462;-83
2021/09/09 11:08:55;;;;;;;6.10;4.00;;;27.80;68.30;;;;;;4991218;28;20483;-81
2021/09/09 11:11:27;;;;;;;5.03;3.87;;;27.30;68.60;;;;;;4975003;28;20459;-81
2021/09/09 11:14:04;;;;;;;6.87;4.30;;;26.70;69.60;;;;;;4975738;28;20405;-80
2021/09/09 11:16:32;;;;;;;5.57;4.07;;;26.50;70.30;;;;;;4975457;28;20404;-81
2021/09/09 11:18:58;;;;;;;6.67;4.37;;;26.70;72.60;;;;;;4976286;28;20404;-81
2021/09/09 11:21:25;;;;;;;6.40;4.07;;;26.40;73.40;;;;;;4980294;28;20476;-81
2021/09/09 11:23:58;;;;;;;8.50;3.97;;;26.40;73.40;;;;;;4976365;28;20189;-81
2021/09/09 11:26:24;;;;;;;16.20;4.37;;;26.80;72.80;;;;;;4967033;28;20406;-83
2021/09/09 11:28:51;;;;;;;10.53;4.53;;;26.70;71.60;;;;;;4956569;28;20410;-80
2021/09/09 11:31:20;;;;;;;6.97;4.50;;;26.10;73.10;;;;;;4955827;29;20477;-81
2021/09/09 11:33:51;;;;;;;9.63;4.47;;;25.80;74.20;;;;;;4956746;29;20560;-81
2021/09/09 11:36:21;;;;;;;6.07;4.53;;;25.70;75.50;;;;;;4957270;29;20746;-82
2021/09/09 11:38:48;;;;;;;7.70;4.53;;;26.00;73.60;;;;;;4956923;29;20477;-81
2021/09/09 11:41:16;;;;;;;9.70;4.33;;;25.70;74.00;;;;;;4958029;28;20427;-82
2021/09/09 11:43:54;;;;;;;5.90;3.60;;;25.90;75.20;;;;;;4959484;29;20415;-81
2021/09/09 11:46:42;;;;;;;7.10;4.50;;;25.90;75.00;;;;;;4960039;28;20430;-81
2021/09/09 11:49:11;;;;;;;4.40;4.00;;;25.80;75.30;;;;;;4960327;29;20425;-81
2021/09/09 11:51:48;;;;;;;4.90;3.90;;;26.20;75.10;;;;;;4960113;29;21040;-81
2021/09/09 11:54:26;;;;;;;7.23;3.90;;;25.90;73.50;;;;;;4961216;28;20417;-81
2021/09/09 11:57:05;;;;;;;5.57;4.33;;;26.10;74.90;;;;;;4960397;29;20437;-81
2021/09/09 11:59:38;;;;;;;10.20;3.67;;;26.20;73.20;;;;;;4961422;29;20961;-82
2021/09/09 12:02:07;;;;;;;4.67;3.83;;;26.30;73.10;;;;;;4960746;28;20437;-81
2021/09/09 12:04:34;;;;;;;7.30;4.73;;;26.10;73.10;;;;;;4961764;29;20464;-81
2021/09/09 12:07:00;;;;;;;6.30;4.10;;;25.90;73.10;;;;;;4961653;29;20415;-82
2021/09/09 12:09:27;;;;;;;5.17;4.27;;;25.70;73.70;;;;;;4962002;28;20502;-81
2021/09/09 12:12:04;;;;;;;6.10;4.07;;;25.70;73.70;;;;;;4960938;29;20465;-82
2021/09/09 12:14:29;;;;;;;5.13;4.60;;;26.10;74.50;;;;;;4965271;28;20413;-82
2021/09/09 12:17:09;;;;;;;7.10;4.03;;;26.40;74.60;;;;;;4960220;29;20794;-81
2021/09/09 12:19:51;;;;;;;5.30;4.37;;;26.50;74.60;;;;;;4963734;29;20206;-81
2021/09/09 12:22:16;;;;;;;14.57;4.20;;;26.40;73.70;;;;;;4965936;28;20445;-82
2021/09/09 12:24:42;;;;;;;5.80;4.30;;;;;;;;;;4960215;29;20430;-81
2021/09/09 12:27:08;;;;;;;7.53;4.30;;;26.20;75.20;;;;;;4960838;29;20217;-83
2021/09/09 12:29:36;;;;;;;4.90;4.10;;;26.00;74.60;;;;;;4960468;28;20675;-81
2021/09/09 12:32:22;;;;;;;6.07;4.30;;;26.00;76.00;;;;;;4959815;28;20211;-81
2021/09/09 12:34:48;;;;;;;9.83;4.90;;;;;;;;;;4960500;28;20969;-82
2021/09/09 12:37:15;;;;;;;6.10;4.73;;;26.60;73.40;;;;;;4960332;28;20509;-81
2021/09/09 12:39:47;;;;;;;5.17;4.23;;;26.40;73.40;;;;;;4960036;28;20201;-81
2021/09/09 12:42:13;;;;;;;5.43;4.30;;;26.30;74.20;;;;;;4957716;28;20438;-82
2021/09/09 12:44:39;;;;;;;10.20;4.70;;;;;;;;;;4959771;28;20434;-81
2021/09/09 12:47:18;;;;;;;4.77;4.20;;;26.30;74.90;;;;;;4959028;28;20183;-81
2021/09/09 12:49:43;;;;;;;4.70;3.97;;;26.70;74.90;;;;;;4960597;28;20626;-81
2021/09/09 12:52:13;;;;;;;5.53;4.27;;;27.10;74.70;;;;;;4957170;28;20470;-82
2021/09/09 12:54:45;;;;;;;5.20;4.47;;;26.80;74.40;;;;;;4959772;28;20178;-82
2021/09/09 12:57:10;;;;;;;11.50;4.50;;;26.70;74.90;;;;;;4959809;28;20755;-81
2021/09/09 12:59:36;;;;;;;5.73;4.20;;;26.70;73.90;;;;;;4958835;28;20416;-81
2021/09/09 13:02:01;;;;;;;5.97;3.97;;;26.90;74.70;;;;;;4959166;28;20194;-82
2021/09/09 13:04:29;;;;;;;6.90;4.07;;;;;;;;;;4959516;28;20185;-81
2021/09/09 13:06:56;;;;;;;10.63;4.40;;;27.10;74.60;;;;;;4961125;28;20521;-82
2021/09/09 13:09:21;;;;;;;4.40;3.93;;;;;;;;;;4960013;28;20448;-81
2021/09/09 13:11:47;;;;;;;4.73;4.33;;;27.40;75.10;;;;;;4959625;28;21000;-81
2021/09/09 13:14:13;;;;;;;7.57;4.10;;;27.80;73.10;;;;;;4960727;28;20179;-83
2021/09/09 13:16:39;;;;;;;8.23;4.13;;;27.50;75.50;;;;;;4958858;28;20241;-81
2021/09/09 13:19:05;;;;;;;12.30;4.37;;;27.40;74.80;;;;;;4959419;28;20174;-81
2021/09/09 13:21:32;;;;;;;7.30;3.80;;;27.40;73.00;;;;;;4959092;28;20434;-81
2021/09/09 13:23:59;;;;;;;6.37;3.97;;;27.20;73.80;;;;;;4964532;28;20450;-81
2021/09/09 13:26:25;;;;;;;5.03;4.10;;;27.00;74.40;;;;;;4959849;28;20424;-83
2021/09/09 13:28:53;;;;;;;6.33;4.60;;;26.60;74.50;;;;;;4959789;28;20418;-82
2021/09/09 13:31:23;;;;;;;5.80;4.00;;;26.60;75.70;;;;;;4957321;29;21019;-81
2021/09/09 13:33:50;;;;;;;9.50;4.10;;;26.90;75.30;;;;;;4959766;28;20418;-81
2021/09/09 13:36:16;;;;;;;5.40;4.40;;;26.80;74.30;;;;;;4959740;28;20494;-81
2021/09/09 13:38:42;;;;;;;6.20;4.47;;;27.20;74.70;;;;;;4959696;28;20875;-81
2021/09/09 13:41:08;;;;;;;6.87;4.90;;;27.30;74.40;;;;;;4960625;28;20433;-81
2021/09/09 13:43:34;;;;;;;8.57;4.03;;;27.60;72.90;;;;;;4961083;28;20536;-81
2021/09/09 13:46:00;;;;;;;4.70;3.30;;;27.40;73.20;;;;;;4959515;28;20426;-82
2021/09/09 13:48:25;;;;;;;5.17;4.00;;;27.40;73.50;;;;;;4957121;28;20182;-81
2021/09/09 13:50:51;;;;;;;6.50;4.43;;;26.70;75.40;;;;;;4959847;28;20485;-83
2021/09/09 13:53:17;;;;;;;6.20;4.40;;;26.70;75.80;;;;;;4959316;28;20183;-82
2021/09/09 13:55:42;;;;;;;14.60;4.17;;;26.00;76.30;;;;;;4958775;28;20616;-81
2021/09/09 13:58:08;;;;;;;4.57;4.00;;;25.90;77.50;;;;;;4958642;28;20186;-82
2021/09/09 14:00:36;;;;;;;6.57;4.60;;;25.60;76.40;;;;;;4958957;28;20191;-82
2021/09/09 14:03:01;;;;;;;5.20;4.70;;;25.40;78.00;;;;;;4957130;28;20171;-81
2021/09/09 14:05:27;;;;;;;6.20;4.50;;;25.00;78.60;;;;;;4959448;28;20776;-81
2021/09/09 14:07:52;;;;;;;5.97;4.07;;;25.10;79.10;;;;;;4958934;28;20206;-82
2021/09/09 14:10:18;;;;;;;5.10;4.20;;;25.10;78.80;;;;;;4957198;28;20178;-81
2021/09/09 14:12:44;;;;;;;12.13;4.60;;;25.10;78.90;;;;;;4957255;28;20692;-80
2021/09/09 14:15:12;;;;;;;12.50;4.60;;;24.90;80.00;;;;;;4959031;28;20183;-82
2021/09/09 14:17:38;;;;;;;7.13;4.43;;;24.80;79.30;;;;;;4959391;28;20443;-81
2021/09/09 14:20:06;;;;;;;8.13;4.33;;;25.10;80.40;;;;;;4960387;28;20406;-81
2021/09/09 14:22:32;;;;;;;9.80;4.20;;;25.30;79.80;;;;;;4958557;29;20921;-81
2021/09/09 14:24:59;;;;;;;9.70;4.00;;;25.40;79.10;;;;;;4957988;28;20429;-81
2021/09/09 14:27:25;;;;;;;6.80;4.00;;;25.40;78.80;;;;;;4958166;28;20171;-81
2021/09/09 14:29:50;;;;;;;4.50;3.93;;;25.00;79.80;;;;;;4957928;28;20925;-80
2021/09/09 14:32:16;;;;;;;9.33;4.80;;;24.90;80.20;;;;;;4957210;28;20552;-80
2021/09/09 14:34:42;;;;;;;5.80;3.90;;;24.70;80.30;;;;;;4958116;28;20199;-81
2021/09/09 14:37:08;;;;;;;11.13;3.40;;;25.00;79.10;;;;;;4957921;28;20755;-82
2021/09/09 14:39:34;;;;;;;8.43;5.20;;;24.90;80.80;;;;;;4956956;28;20175;-80
2021/09/09 14:41:59;;;;;;;5.97;4.67;;;24.80;80.50;;;;;;4959516;29;20195;-80
2021/09/09 14:44:25;;;;;;;7.37;4.97;;;25.10;82.40;;;;;;4959198;28;20221;-80
2021/09/09 14:46:51;;;;;;;8.90;4.00;;;25.50;79.60;;;;;;4958795;28;20183;-80
2021/09/09 14:49:16;;;;;;;5.70;4.03;;;25.70;80.00;;;;;;4956440;28;20175;-81
2021/09/09 14:51:42;;;;;;;7.60;4.30;;;25.50;80.00;;;;;;4956017;28;20206;-81
2021/09/09 14:54:08;;;;;;;10.20;6.00;;;;;;;;;;4957333;28;20182;-79
2021/09/09 14:56:34;;;;;;;11.43;6.10;;;24.90;80.40;;;;;;4956328;28;20174;-79
2021/09/09 14:58:59;;;;;;;7.33;4.70;;;24.60;81.90;;;;;;4955427;28;20182;-79
2021/09/09 15:01:25;;;;;;;11.43;7.10;;;24.70;81.50;;;;;;4956019;28;20203;-79
2021/09/09 15:03:50;;;;;;;15.50;7.90;;;24.90;82.40;;;;;;4954727;28;20827;-80
2021/09/09 15:06:16;;;;;;;4.57;4.13;;;25.00;81.50;;;;;;4956822;28;20175;-79
2021/09/09 15:08:41;;;;;;;6.83;4.67;;;24.60;82.20;;;;;;4957009;28;20524;-79
2021/09/09 15:11:07;;;;;;;6.50;4.50;;;;;;;;;;4955508;28;20206;-79
2021/09/09 15:13:36;;;;;;;10.00;4.87;;;24.70;81.30;;;;;;4956638;28;20171;-79
2021/09/09 15:16:06;;;;;;;7.30;6.00;;;24.80;81.00;;;;;;4958785;28;20467;-79
2021/09/09 15:18:32;;;;;;;6.83;5.30;;;25.00;80.70;;;;;;4965503;28;20911;-79
2021/09/09 15:20:58;;;;;;;7.27;4.17;;;;;;;;;;4959508;28;20434;-79
2021/09/09 15:23:24;;;;;;;7.90;4.50;;;25.00;80.90;;;;;;4959930;28;20425;-79
2021/09/09 15:25:50;;;;;;;14.63;4.70;;;25.20;80.90;;;;;;4964312;28;20418;-79
2021/09/09 15:28:16;;;;;;;7.13;5.07;;;25.20;79.70;;;;;;4979387;28;20413;-79
2021/09/09 15:30:41;;;;;;;11.43;5.53;;;25.20;80.20;;;;;;4972843;28;20205;-80
2021/09/09 15:33:08;;;;;;;11.10;5.40;;;25.10;79.90;;;;;;4970748;28;20292;-80
2021/09/09 15:35:34;;;;;;;8.90;4.43;;;24.90;81.60;;;;;;4971405;28;20166;-79
2021/09/09 15:38:00;;;;;;;7.17;5.30;;;25.00;81.30;;;;;;4968625;28;20421;-79
2021/09/09 15:40:26;;;;;;;7.30;4.70;;;25.00;80.30;;;;;;4962223;28;20414;-79
2021/09/09 15:42:54;;;;;;;9.23;4.77;;;24.90;80.40;;;;;;4959032;28;20178;-80
2021/09/09 15:45:23;;;;;;;8.00;4.73;;;24.60;81.50;;;;;;4962525;28;20505;-80
2021/09/09 15:47:49;;;;;;;10.70;4.70;;;24.30;82.80;;;;;;4966257;28;20514;-79
2021/09/09 15:50:15;;;;;;;7.27;4.43;;;23.90;82.40;;;;;;4968113;28;20426;-80
2021/09/09 15:52:41;;;;;;;8.47;4.60;;;23.70;83.10;;;;;;4970533;28;20871;-79
2021/09/09 15:55:07;;;;;;;6.63;4.47;;;23.80;81.40;;;;;;4963823;28;20506;-79
2021/09/09 15:57:33;;;;;;;9.43;4.80;;;;;;;;;;4963077;28;20202;-80
2021/09/09 16:00:03;;;;;;;13.10;6.10;;;24.20;82.80;;;;;;4962179;28;20175;-80
2021/09/09 16:02:28;;;;;;;7.33;5.13;;;24.10;84.00;;;;;;4960542;28;20199;-81
2021/09/09 16:04:54;;;;;;;5.67;4.97;;;;;;;;;;4966694;28;20428;-80
2021/09/09 16:07:20;;;;;;;9.03;4.70;;;;;;;;;;4965043;28;20217;-79
2021/09/09 16:09:46;;;;;;;10.73;5.10;;;23.60;82.60;;;;;;4972841;28;20421;-81
2021/09/09 16:12:12;;;;;;;6.80;5.23;;;;;;;;;;4964840;28;20237;-79
2021/09/09 16:14:37;;;;;;;6.97;4.93;;;23.40;83.00;;;;;;4970587;28;20183;-79
2021/09/09 16:17:03;;;;;;;7.00;5.20;;;23.40;83.90;;;;;;4967866;28;20246;-80
2021/09/09 16:19:29;;;;;;;9.70;5.10;;;23.30;83.60;;;;;;4986362;28;20182;-81
2021/09/09 16:21:55;;;;;;;7.03;4.70;;;;;;;;;;5209313;23;20496;-79
2021/09/09 16:24:20;;;;;;;8.50;4.80;;;23.20;83.90;;;;;;4976542;28;20178;-80
2021/09/09 16:26:46;;;;;;;6.17;4.87;;;23.00;85.00;;;;;;4965984;28;20957;-81
2021/09/09 16:29:12;;;;;;;8.43;4.80;;;22.80;86.00;;;;;;4958343;28;20198;-80
2021/09/09 16:31:37;;;;;;;7.93;4.87;;;22.70;86.70;;;;;;4955821;28;20262;-79
2021/09/09 16:34:03;;;;;;;7.63;5.37;;;22.50;86.60;;;;;;4957967;28;20179;-81
2021/09/09 16:36:29;;;;;;;8.33;5.30;;;22.40;87.20;;;;;;4959148;28;20199;-81
2021/09/09 16:38:54;;;;;;;16.10;5.60;;;22.20;88.20;;;;;;4959062;28;20592;-82
2021/09/09 16:41:20;;;;;;;9.43;5.57;;;22.10;88.00;;;;;;4978434;28;20205;-80
2021/09/09 16:43:46;;;;;;;15.07;5.27;;;22.10;87.80;;;;;;4978023;28;20182;-81
2021/09/09 16:46:12;;;;;;;6.43;5.30;;;22.00;88.30;;;;;;4978467;28;20428;-81
2021/09/09 16:48:39;;;;;;;8.60;5.90;;;21.90;88.00;;;;;;4977895;28;20173;-81
2021/09/09 16:51:04;;;;;;;7.43;4.93;;;21.90;88.80;;;;;;4976147;28;20514;-86
2021/09/09 16:53:30;;;;;;;10.53;5.47;;;21.80;89.20;;;;;;4976925;28;20435;-80